sensor_id;sensor_type;location;lat;lon;timestamp;P1;durP1;ratioP1;P2;durP2;ratioP2
51949;SDS011;37974;53.218;6.640;2024-01-06T00:00:31;717.70;;;664.40;;
51949;SDS011;37974;53.218;6.640;2024-01-06T00:02:57;695.08;;;644.15;;
51949;SDS011;37974;53.218;6.640;2024-01-06T00:05:23;652.22;;;604.25;;
51949;SDS011;37974;53.218;6.640;2024-01-06T00:07:48;701.80;;;650.58;;
51949;SDS011;37974;53.218;6.640;2024-01-06T00:10:14;660.13;;;611.92;;
51949;SDS011;37974;53.218;6.640;2024-01-06T00:12:40;655.00;;;607.03;;
51949;SDS011;37974;53.218;6.640;2024-01-06T00:15:06;677.95;;;628.50;;
51949;SDS011;37974;53.218;6.640;2024-01-06T00:17:32;641.58;;;595.95;;
51949;SDS011;37974;53.218;6.640;2024-01-06T00:19:57;660.65;;;612.88;;
51949;SDS011;37974;53.218;6.640;2024-01-06T00:22:25;671.38;;;622.50;;
51949;SDS011;37974;53.218;6.640;2024-01-06T00:24:51;669.33;;;620.85;;
51949;SDS011;37974;53.218;6.640;2024-01-06T00:27:17;696.15;;;645.03;;
51949;SDS011;37974;53.218;6.640;2024-01-06T00:29:42;695.70;;;644.67;;
51949;SDS011;37974;53.218;6.640;2024-01-06T00:32:08;685.88;;;635.53;;
51949;SDS011;37974;53.218;6.640;2024-01-06T00:34:34;662.85;;;614.45;;
51949;SDS011;37974;53.218;6.640;2024-01-06T00:37:00;695.25;;;644.25;;
51949;SDS011;37974;53.218;6.640;2024-01-06T00:39:25;682.88;;;632.88;;
51949;SDS011;37974;53.218;6.640;2024-01-06T00:41:51;702.33;;;651.10;;
51949;SDS011;37974;53.218;6.640;2024-01-06T00:44:17;724.78;;;670.65;;
51949;SDS011;37974;53.218;6.640;2024-01-06T00:46:42;681.25;;;631.05;;
51949;SDS011;37974;53.218;6.640;2024-01-06T00:49:08;694.90;;;643.92;;
51949;SDS011;37974;53.218;6.640;2024-01-06T00:51:34;689.88;;;638.28;;
51949;SDS011;37974;53.218;6.640;2024-01-06T00:53:59;673.65;;;623.95;;
51949;SDS011;37974;53.218;6.640;2024-01-06T00:56:25;764.55;;;703.13;;
51949;SDS011;37974;53.218;6.640;2024-01-06T00:58:52;660.33;;;611.67;;
51949;SDS011;37974;53.218;6.640;2024-01-06T01:01:18;647.50;;;600.13;;
51949;SDS011;37974;53.218;6.640;2024-01-06T01:03:43;713.45;;;661.05;;
51949;SDS011;37974;53.218;6.640;2024-01-06T01:06:09;680.92;;;630.42;;
51949;SDS011;37974;53.218;6.640;2024-01-06T01:08:35;706.22;;;654.47;;
51949;SDS011;37974;53.218;6.640;2024-01-06T01:11:00;723.67;;;669.67;;
51949;SDS011;37974;53.218;6.640;2024-01-06T01:13:26;658.50;;;609.83;;
51949;SDS011;37974;53.218;6.640;2024-01-06T01:15:52;694.70;;;642.85;;
51949;SDS011;37974;53.218;6.640;2024-01-06T01:18:17;647.78;;;600.65;;
51949;SDS011;37974;53.218;6.640;2024-01-06T01:20:43;617.95;;;572.60;;
51949;SDS011;37974;53.218;6.640;2024-01-06T01:23:09;677.22;;;627.55;;
51949;SDS011;37974;53.218;6.640;2024-01-06T01:25:35;769.58;;;708.00;;
51949;SDS011;37974;53.218;6.640;2024-01-06T01:28:00;627.40;;;581.70;;
51949;SDS011;37974;53.218;6.640;2024-01-06T01:30:26;667.10;;;618.35;;
51949;SDS011;37974;53.218;6.640;2024-01-06T01:32:52;673.85;;;624.72;;
51949;SDS011;37974;53.218;6.640;2024-01-06T01:35:18;623.65;;;579.03;;
51949;SDS011;37974;53.218;6.640;2024-01-06T01:37:44;624.15;;;579.20;;
51949;SDS011;37974;53.218;6.640;2024-01-06T01:40:10;612.00;;;568.28;;
51949;SDS011;37974;53.218;6.640;2024-01-06T01:42:36;587.00;;;544.97;;
51949;SDS011;37974;53.218;6.640;2024-01-06T01:45:02;616.70;;;572.35;;
51949;SDS011;37974;53.218;6.640;2024-01-06T01:47:29;580.95;;;540.08;;
51949;SDS011;37974;53.218;6.640;2024-01-06T01:49:55;592.33;;;549.92;;
51949;SDS011;37974;53.218;6.640;2024-01-06T01:52:22;609.83;;;566.00;;
51949;SDS011;37974;53.218;6.640;2024-01-06T01:54:47;637.17;;;591.33;;
51949;SDS011;37974;53.218;6.640;2024-01-06T01:57:14;625.67;;;580.53;;
51949;SDS011;37974;53.218;6.640;2024-01-06T01:59:41;597.15;;;554.53;;
51949;SDS011;37974;53.218;6.640;2024-01-06T02:02:08;604.67;;;561.40;;
51949;SDS011;37974;53.218;6.640;2024-01-06T02:04:34;618.28;;;573.50;;
51949;SDS011;37974;53.218;6.640;2024-01-06T02:07:00;591.58;;;549.38;;
51949;SDS011;37974;53.218;6.640;2024-01-06T02:09:25;622.47;;;577.55;;
51949;SDS011;37974;53.218;6.640;2024-01-06T02:11:56;567.53;;;527.45;;
51949;SDS011;37974;53.218;6.640;2024-01-06T02:14:23;593.70;;;551.38;;
51949;SDS011;37974;53.218;6.640;2024-01-06T02:16:49;629.53;;;584.20;;
51949;SDS011;37974;53.218;6.640;2024-01-06T02:19:14;609.67;;;566.17;;
51949;SDS011;37974;53.218;6.640;2024-01-06T02:21:43;598.38;;;555.40;;
51949;SDS011;37974;53.218;6.640;2024-01-06T02:24:09;602.22;;;559.05;;
51949;SDS011;37974;53.218;6.640;2024-01-06T02:26:35;585.83;;;544.05;;
51949;SDS011;37974;53.218;6.640;2024-01-06T02:29:01;600.03;;;557.33;;
51949;SDS011;37974;53.218;6.640;2024-01-06T02:31:27;581.25;;;539.78;;
51949;SDS011;37974;53.218;6.640;2024-01-06T02:33:53;637.38;;;591.30;;
51949;SDS011;37974;53.218;6.640;2024-01-06T02:36:19;605.15;;;561.83;;
51949;SDS011;37974;53.218;6.640;2024-01-06T02:38:44;562.63;;;522.55;;
51949;SDS011;37974;53.218;6.640;2024-01-06T02:41:10;583.42;;;541.97;;
51949;SDS011;37974;53.218;6.640;2024-01-06T02:43:36;586.33;;;544.45;;
51949;SDS011;37974;53.218;6.640;2024-01-06T02:46:01;552.42;;;514.30;;
51949;SDS011;37974;53.218;6.640;2024-01-06T02:48:27;612.45;;;567.05;;
51949;SDS011;37974;53.218;6.640;2024-01-06T02:50:55;571.10;;;531.17;;
51949;SDS011;37974;53.218;6.640;2024-01-06T02:53:21;593.15;;;550.67;;
51949;SDS011;37974;53.218;6.640;2024-01-06T02:55:47;611.15;;;566.40;;
51949;SDS011;37974;53.218;6.640;2024-01-06T02:58:13;600.53;;;557.38;;
51949;SDS011;37974;53.218;6.640;2024-01-06T03:00:38;562.53;;;522.97;;
51949;SDS011;37974;53.218;6.640;2024-01-06T03:03:04;629.53;;;584.20;;
51949;SDS011;37974;53.218;6.640;2024-01-06T03:05:30;573.38;;;533.30;;
51949;SDS011;37974;53.218;6.640;2024-01-06T03:07:56;604.60;;;561.60;;
51949;SDS011;37974;53.218;6.640;2024-01-06T03:10:22;614.80;;;571.15;;
51949;SDS011;37974;53.218;6.640;2024-01-06T03:12:48;645.15;;;598.08;;
51949;SDS011;37974;53.218;6.640;2024-01-06T03:15:13;632.65;;;587.00;;
51949;SDS011;37974;53.218;6.640;2024-01-06T03:17:39;647.20;;;600.63;;
51949;SDS011;37974;53.218;6.640;2024-01-06T03:20:05;601.30;;;558.50;;
51949;SDS011;37974;53.218;6.640;2024-01-06T03:22:32;617.42;;;573.03;;
51949;SDS011;37974;53.218;6.640;2024-01-06T03:24:58;628.17;;;582.88;;
51949;SDS011;37974;53.218;6.640;2024-01-06T03:27:24;620.38;;;575.80;;
51949;SDS011;37974;53.218;6.640;2024-01-06T03:29:49;603.50;;;560.20;;
51949;SDS011;37974;53.218;6.640;2024-01-06T03:32:15;592.53;;;550.10;;
51949;SDS011;37974;53.218;6.640;2024-01-06T03:34:41;612.63;;;568.53;;
51949;SDS011;37974;53.218;6.640;2024-01-06T03:37:07;587.65;;;545.35;;
51949;SDS011;37974;53.218;6.640;2024-01-06T03:39:32;592.58;;;550.10;;
51949;SDS011;37974;53.218;6.640;2024-01-06T03:41:59;626.22;;;580.65;;
51949;SDS011;37974;53.218;6.640;2024-01-06T03:44:25;631.65;;;585.95;;
51949;SDS011;37974;53.218;6.640;2024-01-06T03:46:55;611.25;;;567.17;;
51949;SDS011;37974;53.218;6.640;2024-01-06T03:49:23;583.67;;;541.75;;
51949;SDS011;37974;53.218;6.640;2024-01-06T03:51:49;565.35;;;525.47;;
51949;SDS011;37974;53.218;6.640;2024-01-06T03:54:15;611.10;;;566.88;;
51949;SDS011;37974;53.218;6.640;2024-01-06T03:56:40;587.78;;;545.92;;
51949;SDS011;37974;53.218;6.640;2024-01-06T03:59:06;586.38;;;544.13;;
51949;SDS011;37974;53.218;6.640;2024-01-06T04:01:32;587.75;;;545.75;;
51949;SDS011;37974;53.218;6.640;2024-01-06T04:04:02;569.50;;;528.95;;
51949;SDS011;37974;53.218;6.640;2024-01-06T04:06:29;585.95;;;544.25;;
51949;SDS011;37974;53.218;6.640;2024-01-06T04:08:57;598.38;;;555.13;;
51949;SDS011;37974;53.218;6.640;2024-01-06T04:11:23;613.40;;;569.97;;
51949;SDS011;37974;53.218;6.640;2024-01-06T04:13:48;606.95;;;562.60;;
51949;SDS011;37974;53.218;6.640;2024-01-06T04:16:14;626.65;;;581.20;;
51949;SDS011;37974;53.218;6.640;2024-01-06T04:18:40;573.10;;;532.90;;
51949;SDS011;37974;53.218;6.640;2024-01-06T04:21:06;618.03;;;572.53;;
51949;SDS011;37974;53.218;6.640;2024-01-06T04:23:31;630.40;;;584.83;;
51949;SDS011;37974;53.218;6.640;2024-01-06T04:25:57;584.47;;;542.40;;
51949;SDS011;37974;53.218;6.640;2024-01-06T04:28:23;616.08;;;571.67;;
51949;SDS011;37974;53.218;6.640;2024-01-06T04:30:48;622.33;;;577.15;;
51949;SDS011;37974;53.218;6.640;2024-01-06T04:33:14;612.60;;;567.92;;
51949;SDS011;37974;53.218;6.640;2024-01-06T04:35:40;640.90;;;593.97;;
51949;SDS011;37974;53.218;6.640;2024-01-06T04:38:06;619.40;;;574.72;;
51949;SDS011;37974;53.218;6.640;2024-01-06T04:40:31;616.28;;;572.10;;
51949;SDS011;37974;53.218;6.640;2024-01-06T04:42:57;639.72;;;593.00;;
51949;SDS011;37974;53.218;6.640;2024-01-06T04:45:23;627.80;;;582.13;;
51949;SDS011;37974;53.218;6.640;2024-01-06T04:47:50;587.28;;;544.65;;
51949;SDS011;37974;53.218;6.640;2024-01-06T04:50:16;564.42;;;525.10;;
51949;SDS011;37974;53.218;6.640;2024-01-06T04:52:42;626.70;;;581.05;;
51949;SDS011;37974;53.218;6.640;2024-01-06T04:55:09;607.15;;;563.53;;
51949;SDS011;37974;53.218;6.640;2024-01-06T04:57:36;642.03;;;595.65;;
51949;SDS011;37974;53.218;6.640;2024-01-06T05:00:02;633.42;;;587.42;;
51949;SDS011;37974;53.218;6.640;2024-01-06T05:02:28;616.08;;;571.35;;
51949;SDS011;37974;53.218;6.640;2024-01-06T05:04:54;575.90;;;534.92;;
51949;SDS011;37974;53.218;6.640;2024-01-06T05:07:20;602.08;;;558.70;;
51949;SDS011;37974;53.218;6.640;2024-01-06T05:09:45;600.03;;;556.95;;
51949;SDS011;37974;53.218;6.640;2024-01-06T05:12:11;563.90;;;524.30;;
51949;SDS011;37974;53.218;6.640;2024-01-06T05:14:37;586.58;;;544.78;;
51949;SDS011;37974;53.218;6.640;2024-01-06T05:17:03;589.53;;;547.70;;
51949;SDS011;37974;53.218;6.640;2024-01-06T05:19:28;601.20;;;558.10;;
51949;SDS011;37974;53.218;6.640;2024-01-06T05:21:54;632.50;;;586.45;;
51949;SDS011;37974;53.218;6.640;2024-01-06T05:24:20;605.63;;;561.45;;
51949;SDS011;37974;53.218;6.640;2024-01-06T05:26:47;630.95;;;585.33;;
51949;SDS011;37974;53.218;6.640;2024-01-06T05:29:13;555.80;;;517.08;;
51949;SDS011;37974;53.218;6.640;2024-01-06T05:31:39;567.25;;;527.38;;
51949;SDS011;37974;53.218;6.640;2024-01-06T05:34:05;545.38;;;507.30;;
51949;SDS011;37974;53.218;6.640;2024-01-06T05:36:30;578.40;;;537.60;;
51949;SDS011;37974;53.218;6.640;2024-01-06T05:38:56;600.72;;;557.65;;
51949;SDS011;37974;53.218;6.640;2024-01-06T05:41:22;573.42;;;533.42;;
51949;SDS011;37974;53.218;6.640;2024-01-06T05:43:47;645.70;;;596.10;;
51949;SDS011;37974;53.218;6.640;2024-01-06T05:46:20;603.42;;;559.67;;
51949;SDS011;37974;53.218;6.640;2024-01-06T05:48:48;572.50;;;532.38;;
51949;SDS011;37974;53.218;6.640;2024-01-06T05:51:13;571.08;;;531.10;;
51949;SDS011;37974;53.218;6.640;2024-01-06T05:53:39;646.70;;;599.78;;
51949;SDS011;37974;53.218;6.640;2024-01-06T05:56:07;577.40;;;536.28;;
51949;SDS011;37974;53.218;6.640;2024-01-06T05:58:34;578.60;;;538.15;;
51949;SDS011;37974;53.218;6.640;2024-01-06T06:01:00;567.08;;;527.55;;
51949;SDS011;37974;53.218;6.640;2024-01-06T06:03:26;577.25;;;535.67;;
51949;SDS011;37974;53.218;6.640;2024-01-06T06:05:51;555.10;;;516.63;;
51949;SDS011;37974;53.218;6.640;2024-01-06T06:08:18;582.88;;;541.90;;
51949;SDS011;37974;53.218;6.640;2024-01-06T06:10:43;590.92;;;549.05;;
51949;SDS011;37974;53.218;6.640;2024-01-06T06:13:30;567.90;;;527.85;;
51949;SDS011;37974;53.218;6.640;2024-01-06T06:15:56;583.67;;;541.90;;
51949;SDS011;37974;53.218;6.640;2024-01-06T06:18:22;569.08;;;529.33;;
51949;SDS011;37974;53.218;6.640;2024-01-06T06:20:48;543.55;;;505.92;;
51949;SDS011;37974;53.218;6.640;2024-01-06T06:23:14;595.25;;;552.88;;
51949;SDS011;37974;53.218;6.640;2024-01-06T06:25:40;559.50;;;520.22;;
51949;SDS011;37974;53.218;6.640;2024-01-06T06:28:05;599.05;;;556.88;;
51949;SDS011;37974;53.218;6.640;2024-01-06T06:30:31;525.30;;;489.33;;
51949;SDS011;37974;53.218;6.640;2024-01-06T06:32:58;558.78;;;519.55;;
51949;SDS011;37974;53.218;6.640;2024-01-06T06:35:24;563.53;;;524.15;;
51949;SDS011;37974;53.218;6.640;2024-01-06T06:37:50;552.63;;;514.15;;
51949;SDS011;37974;53.218;6.640;2024-01-06T06:40:15;534.78;;;497.67;;
51949;SDS011;37974;53.218;6.640;2024-01-06T06:42:41;620.35;;;575.50;;
51949;SDS011;37974;53.218;6.640;2024-01-06T06:45:07;520.00;;;485.48;;
51949;SDS011;37974;53.218;6.640;2024-01-06T06:47:33;536.90;;;499.83;;
51949;SDS011;37974;53.218;6.640;2024-01-06T06:49:59;506.83;;;472.73;;
51949;SDS011;37974;53.218;6.640;2024-01-06T06:52:25;534.95;;;497.85;;
51949;SDS011;37974;53.218;6.640;2024-01-06T06:54:51;536.63;;;499.60;;
51949;SDS011;37974;53.218;6.640;2024-01-06T06:57:18;542.15;;;504.50;;
51949;SDS011;37974;53.218;6.640;2024-01-06T06:59:44;573.10;;;533.28;;
51949;SDS011;37974;53.218;6.640;2024-01-06T07:02:10;524.10;;;488.50;;
51949;SDS011;37974;53.218;6.640;2024-01-06T07:04:35;552.45;;;514.20;;
51949;SDS011;37974;53.218;6.640;2024-01-06T07:07:01;570.55;;;530.03;;
51949;SDS011;37974;53.218;6.640;2024-01-06T07:09:27;506.00;;;471.55;;
51949;SDS011;37974;53.218;6.640;2024-01-06T07:11:52;501.67;;;467.38;;
51949;SDS011;37974;53.218;6.640;2024-01-06T07:14:18;560.65;;;521.08;;
51949;SDS011;37974;53.218;6.640;2024-01-06T07:16:44;511.38;;;477.02;;
51949;SDS011;37974;53.218;6.640;2024-01-06T07:19:10;527.42;;;491.30;;
51949;SDS011;37974;53.218;6.640;2024-01-06T07:21:36;558.20;;;519.03;;
51949;SDS011;37974;53.218;6.640;2024-01-06T07:24:02;599.63;;;556.08;;
51949;SDS011;37974;53.218;6.640;2024-01-06T07:26:28;548.53;;;510.35;;
51949;SDS011;37974;53.218;6.640;2024-01-06T07:28:54;544.50;;;506.98;;
51949;SDS011;37974;53.218;6.640;2024-01-06T07:31:20;530.15;;;493.58;;
51949;SDS011;37974;53.218;6.640;2024-01-06T07:33:45;575.35;;;534.47;;
51949;SDS011;37974;53.218;6.640;2024-01-06T07:36:12;515.85;;;480.02;;
51949;SDS011;37974;53.218;6.640;2024-01-06T07:38:38;562.03;;;522.42;;
51949;SDS011;37974;53.218;6.640;2024-01-06T07:41:04;540.65;;;503.17;;
51949;SDS011;37974;53.218;6.640;2024-01-06T07:43:31;580.65;;;539.28;;
51949;SDS011;37974;53.218;6.640;2024-01-06T07:45:57;552.17;;;513.42;;
51949;SDS011;37974;53.218;6.640;2024-01-06T07:48:22;550.78;;;512.22;;
51949;SDS011;37974;53.218;6.640;2024-01-06T07:50:49;604.85;;;561.00;;
51949;SDS011;37974;53.218;6.640;2024-01-06T07:53:15;569.95;;;528.88;;
51949;SDS011;37974;53.218;6.640;2024-01-06T07:55:41;598.05;;;554.63;;
51949;SDS011;37974;53.218;6.640;2024-01-06T07:58:06;594.85;;;551.88;;
51949;SDS011;37974;53.218;6.640;2024-01-06T08:00:32;610.47;;;566.08;;
51949;SDS011;37974;53.218;6.640;2024-01-06T08:02:58;615.65;;;570.70;;
51949;SDS011;37974;53.218;6.640;2024-01-06T08:05:24;573.17;;;532.05;;
51949;SDS011;37974;53.218;6.640;2024-01-06T08:07:50;611.58;;;567.35;;
51949;SDS011;37974;53.218;6.640;2024-01-06T08:10:17;544.13;;;505.88;;
51949;SDS011;37974;53.218;6.640;2024-01-06T08:12:42;544.05;;;505.95;;
51949;SDS011;37974;53.218;6.640;2024-01-06T08:15:09;568.63;;;527.42;;
51949;SDS011;37974;53.218;6.640;2024-01-06T08:17:35;571.70;;;530.78;;
51949;SDS011;37974;53.218;6.640;2024-01-06T08:20:01;578.92;;;537.65;;
51949;SDS011;37974;53.218;6.640;2024-01-06T08:22:28;526.67;;;490.38;;
51949;SDS011;37974;53.218;6.640;2024-01-06T08:24:54;554.17;;;514.83;;
51949;SDS011;37974;53.218;6.640;2024-01-06T08:27:19;569.25;;;529.50;;
51949;SDS011;37974;53.218;6.640;2024-01-06T08:29:46;567.47;;;527.03;;
51949;SDS011;37974;53.218;6.640;2024-01-06T08:32:12;557.30;;;518.53;;
51949;SDS011;37974;53.218;6.640;2024-01-06T08:34:40;525.13;;;488.73;;
51949;SDS011;37974;53.218;6.640;2024-01-06T08:37:05;556.50;;;517.33;;
51949;SDS011;37974;53.218;6.640;2024-01-06T08:39:31;514.85;;;479.50;;
51949;SDS011;37974;53.218;6.640;2024-01-06T08:41:57;515.03;;;479.70;;
51949;SDS011;37974;53.218;6.640;2024-01-06T08:44:23;531.72;;;494.42;;
51949;SDS011;37974;53.218;6.640;2024-01-06T08:46:49;472.80;;;441.30;;
51949;SDS011;37974;53.218;6.640;2024-01-06T08:49:15;512.08;;;477.10;;
51949;SDS011;37974;53.218;6.640;2024-01-06T08:51:41;516.65;;;481.58;;
51949;SDS011;37974;53.218;6.640;2024-01-06T08:54:07;505.83;;;471.15;;
51949;SDS011;37974;53.218;6.640;2024-01-06T08:56:33;516.85;;;481.42;;
51949;SDS011;37974;53.218;6.640;2024-01-06T08:58:59;484.13;;;451.42;;
51949;SDS011;37974;53.218;6.640;2024-01-06T09:01:25;486.30;;;453.30;;
51949;SDS011;37974;53.218;6.640;2024-01-06T09:03:51;522.63;;;486.92;;
51949;SDS011;37974;53.218;6.640;2024-01-06T09:06:16;502.95;;;466.23;;
51949;SDS011;37974;53.218;6.640;2024-01-06T09:08:42;462.55;;;431.90;;
51949;SDS011;37974;53.218;6.640;2024-01-06T09:11:08;520.55;;;485.00;;
51949;SDS011;37974;53.218;6.640;2024-01-06T09:13:33;513.80;;;478.42;;
51949;SDS011;37974;53.218;6.640;2024-01-06T09:15:59;491.45;;;458.13;;
51949;SDS011;37974;53.218;6.640;2024-01-06T09:18:27;466.33;;;435.35;;
51949;SDS011;37974;53.218;6.640;2024-01-06T09:20:53;493.70;;;460.15;;
51949;SDS011;37974;53.218;6.640;2024-01-06T09:23:33;509.65;;;474.48;;
51949;SDS011;37974;53.218;6.640;2024-01-06T09:25:59;476.60;;;444.58;;
51949;SDS011;37974;53.218;6.640;2024-01-06T09:28:24;480.58;;;448.23;;
51949;SDS011;37974;53.218;6.640;2024-01-06T09:30:50;433.08;;;404.55;;
51949;SDS011;37974;53.218;6.640;2024-01-06T09:33:17;443.15;;;414.00;;
51949;SDS011;37974;53.218;6.640;2024-01-06T09:35:43;429.33;;;400.88;;
51949;SDS011;37974;53.218;6.640;2024-01-06T09:38:09;451.40;;;421.83;;
51949;SDS011;37974;53.218;6.640;2024-01-06T09:40:35;459.02;;;428.85;;
51949;SDS011;37974;53.218;6.640;2024-01-06T09:43:07;418.67;;;391.58;;
51949;SDS011;37974;53.218;6.640;2024-01-06T09:45:32;446.05;;;417.33;;
51949;SDS011;37974;53.218;6.640;2024-01-06T09:47:59;443.48;;;414.80;;
51949;SDS011;37974;53.218;6.640;2024-01-06T09:50:35;386.13;;;361.48;;
51949;SDS011;37974;53.218;6.640;2024-01-06T09:53:00;385.25;;;360.65;;
51949;SDS011;37974;53.218;6.640;2024-01-06T09:55:30;424.67;;;397.50;;
51949;SDS011;37974;53.218;6.640;2024-01-06T09:57:56;423.33;;;395.63;;
51949;SDS011;37974;53.218;6.640;2024-01-06T10:00:22;430.58;;;401.60;;
51949;SDS011;37974;53.218;6.640;2024-01-06T10:02:48;402.30;;;376.10;;
51949;SDS011;37974;53.218;6.640;2024-01-06T10:05:16;421.10;;;393.63;;
51949;SDS011;37974;53.218;6.640;2024-01-06T10:07:43;446.23;;;416.67;;
51949;SDS011;37974;53.218;6.640;2024-01-06T10:10:10;419.73;;;392.15;;
51949;SDS011;37974;53.218;6.640;2024-01-06T10:12:37;430.30;;;401.85;;
51949;SDS011;37974;53.218;6.640;2024-01-06T10:15:05;407.77;;;381.40;;
51949;SDS011;37974;53.218;6.640;2024-01-06T10:17:32;420.67;;;392.98;;
51949;SDS011;37974;53.218;6.640;2024-01-06T10:19:59;422.85;;;394.88;;
51949;SDS011;37974;53.218;6.640;2024-01-06T10:22:25;415.73;;;389.13;;
51949;SDS011;37974;53.218;6.640;2024-01-06T10:24:50;403.77;;;377.80;;
51949;SDS011;37974;53.218;6.640;2024-01-06T10:27:16;390.25;;;365.58;;
51949;SDS011;37974;53.218;6.640;2024-01-06T10:29:42;373.00;;;349.40;;
51949;SDS011;37974;53.218;6.640;2024-01-06T10:32:07;399.77;;;373.92;;
51949;SDS011;37974;53.218;6.640;2024-01-06T10:34:33;387.63;;;363.17;;
51949;SDS011;37974;53.218;6.640;2024-01-06T10:37:01;379.50;;;355.70;;
51949;SDS011;37974;53.218;6.640;2024-01-06T10:39:27;360.20;;;337.88;;
51949;SDS011;37974;53.218;6.640;2024-01-06T10:41:54;339.17;;;318.38;;
51949;SDS011;37974;53.218;6.640;2024-01-06T10:44:21;310.63;;;292.00;;
51949;SDS011;37974;53.218;6.640;2024-01-06T10:46:48;317.05;;;297.83;;
51949;SDS011;37974;53.218;6.640;2024-01-06T10:49:15;333.33;;;312.75;;
51949;SDS011;37974;53.218;6.640;2024-01-06T10:51:46;322.70;;;303.27;;
51949;SDS011;37974;53.218;6.640;2024-01-06T10:54:13;322.17;;;302.85;;
51949;SDS011;37974;53.218;6.640;2024-01-06T10:56:41;306.65;;;288.15;;
51949;SDS011;37974;53.218;6.640;2024-01-06T10:59:08;349.08;;;327.70;;
51949;SDS011;37974;53.218;6.640;2024-01-06T11:01:36;383.20;;;359.25;;
51949;SDS011;37974;53.218;6.640;2024-01-06T11:04:04;364.92;;;342.52;;
51949;SDS011;37974;53.218;6.640;2024-01-06T11:06:30;322.27;;;302.45;;
51949;SDS011;37974;53.218;6.640;2024-01-06T11:09:02;381.02;;;357.50;;
51949;SDS011;37974;53.218;6.640;2024-01-06T11:11:35;367.75;;;345.00;;
51949;SDS011;37974;53.218;6.640;2024-01-06T11:14:19;416.50;;;390.20;;
51949;SDS011;37974;53.218;6.640;2024-01-06T11:16:46;434.50;;;406.77;;
51949;SDS011;37974;53.218;6.640;2024-01-06T11:19:41;437.98;;;409.52;;
51949;SDS011;37974;53.218;6.640;2024-01-06T11:24:49;395.70;;;370.63;;
51949;SDS011;37974;53.218;6.640;2024-01-06T11:27:18;414.83;;;388.58;;
51949;SDS011;37974;53.218;6.640;2024-01-06T11:29:45;374.67;;;351.30;;
51949;SDS011;37974;53.218;6.640;2024-01-06T11:32:32;297.95;;;280.25;;
51949;SDS011;37974;53.218;6.640;2024-01-06T11:37:35;230.55;;;216.80;;
51949;SDS011;37974;53.218;6.640;2024-01-06T11:40:04;242.73;;;228.27;;
51949;SDS011;37974;53.218;6.640;2024-01-06T11:42:34;266.10;;;250.20;;
51949;SDS011;37974;53.218;6.640;2024-01-06T11:45:02;210.43;;;197.93;;
51949;SDS011;37974;53.218;6.640;2024-01-06T11:47:28;236.23;;;222.15;;
51949;SDS011;37974;53.218;6.640;2024-01-06T11:49:56;270.55;;;254.50;;
51949;SDS011;37974;53.218;6.640;2024-01-06T11:52:24;206.88;;;194.40;;
51949;SDS011;37974;53.218;6.640;2024-01-06T11:54:52;212.20;;;199.35;;
51949;SDS011;37974;53.218;6.640;2024-01-06T11:57:19;221.93;;;208.88;;
51949;SDS011;37974;53.218;6.640;2024-01-06T11:59:45;224.27;;;210.93;;
51949;SDS011;37974;53.218;6.640;2024-01-06T12:02:11;207.02;;;194.73;;
51949;SDS011;37974;53.218;6.640;2024-01-06T12:04:38;211.98;;;199.27;;
51949;SDS011;37974;53.218;6.640;2024-01-06T12:07:06;226.77;;;213.43;;
51949;SDS011;37974;53.218;6.640;2024-01-06T12:09:33;163.90;;;153.80;;
51949;SDS011;37974;53.218;6.640;2024-01-06T12:12:02;197.95;;;185.95;;
51949;SDS011;37974;53.218;6.640;2024-01-06T12:14:30;172.77;;;162.40;;
51949;SDS011;37974;53.218;6.640;2024-01-06T12:16:58;227.82;;;214.35;;
51949;SDS011;37974;53.218;6.640;2024-01-06T12:19:28;235.73;;;221.73;;
51949;SDS011;37974;53.218;6.640;2024-01-06T12:21:55;204.60;;;192.27;;
51949;SDS011;37974;53.218;6.640;2024-01-06T12:24:21;191.02;;;179.65;;
51949;SDS011;37974;53.218;6.640;2024-01-06T12:26:47;209.20;;;196.80;;
51949;SDS011;37974;53.218;6.640;2024-01-06T12:29:14;237.57;;;223.15;;
51949;SDS011;37974;53.218;6.640;2024-01-06T12:31:40;252.70;;;237.70;;
51949;SDS011;37974;53.218;6.640;2024-01-06T12:34:06;219.90;;;206.80;;
51949;SDS011;37974;53.218;6.640;2024-01-06T12:36:36;202.35;;;190.20;;
51949;SDS011;37974;53.218;6.640;2024-01-06T12:39:03;213.88;;;201.13;;
51949;SDS011;37974;53.218;6.640;2024-01-06T12:41:29;183.85;;;172.63;;
51949;SDS011;37974;53.218;6.640;2024-01-06T12:43:55;190.50;;;179.02;;
51949;SDS011;37974;53.218;6.640;2024-01-06T12:46:20;167.35;;;157.23;;
51949;SDS011;37974;53.218;6.640;2024-01-06T12:48:46;169.52;;;159.23;;
51949;SDS011;37974;53.218;6.640;2024-01-06T12:51:12;189.77;;;178.52;;
51949;SDS011;37974;53.218;6.640;2024-01-06T12:53:37;195.90;;;184.23;;
51949;SDS011;37974;53.218;6.640;2024-01-06T12:56:03;214.25;;;201.52;;
51949;SDS011;37974;53.218;6.640;2024-01-06T12:58:29;198.40;;;186.55;;
51949;SDS011;37974;53.218;6.640;2024-01-06T13:00:55;233.25;;;219.43;;
51949;SDS011;37974;53.218;6.640;2024-01-06T13:03:22;215.30;;;202.48;;
51949;SDS011;37974;53.218;6.640;2024-01-06T13:05:48;208.32;;;196.00;;
51949;SDS011;37974;53.218;6.640;2024-01-06T13:08:14;226.07;;;212.65;;
51949;SDS011;37974;53.218;6.640;2024-01-06T13:10:40;190.63;;;179.13;;
51949;SDS011;37974;53.218;6.640;2024-01-06T13:13:06;176.57;;;166.00;;
51949;SDS011;37974;53.218;6.640;2024-01-06T13:15:32;238.00;;;223.85;;
51949;SDS011;37974;53.218;6.640;2024-01-06T13:17:57;209.80;;;197.15;;
51949;SDS011;37974;53.218;6.640;2024-01-06T13:20:23;210.35;;;197.75;;
51949;SDS011;37974;53.218;6.640;2024-01-06T13:22:49;232.40;;;218.55;;
51949;SDS011;37974;53.218;6.640;2024-01-06T13:25:16;204.07;;;191.82;;
51949;SDS011;37974;53.218;6.640;2024-01-06T13:27:45;192.70;;;181.18;;
51949;SDS011;37974;53.218;6.640;2024-01-06T13:30:11;217.50;;;204.32;;
51949;SDS011;37974;53.218;6.640;2024-01-06T13:32:38;223.30;;;210.02;;
51949;SDS011;37974;53.218;6.640;2024-01-06T13:35:04;229.32;;;215.73;;
51949;SDS011;37974;53.218;6.640;2024-01-06T13:37:31;262.52;;;246.85;;
51949;SDS011;37974;53.218;6.640;2024-01-06T13:39:57;225.82;;;212.32;;
51949;SDS011;37974;53.218;6.640;2024-01-06T13:42:23;196.00;;;184.25;;
51949;SDS011;37974;53.218;6.640;2024-01-06T13:44:48;208.82;;;196.35;;
51949;SDS011;37974;53.218;6.640;2024-01-06T13:47:14;220.20;;;207.10;;
51949;SDS011;37974;53.218;6.640;2024-01-06T13:49:40;184.63;;;173.50;;
51949;SDS011;37974;53.218;6.640;2024-01-06T13:52:06;255.68;;;240.48;;
51949;SDS011;37974;53.218;6.640;2024-01-06T13:54:34;237.05;;;222.82;;
51949;SDS011;37974;53.218;6.640;2024-01-06T13:57:00;232.32;;;218.63;;